sensor_id;sensor_type;location;lat;lon;timestamp;temperature;humidity
9271;DHT22;4673;53.458;9.940;2022-09-13T00:01:14;16.70;71.50
9271;DHT22;4673;53.458;9.940;2022-09-13T00:03:40;16.70;71.80
9271;DHT22;4673;53.458;9.940;2022-09-13T00:06:11;16.60;71.50
9271;DHT22;4673;53.458;9.940;2022-09-13T00:08:36;16.70;71.10
9271;DHT22;4673;53.458;9.940;2022-09-13T00:11:02;16.70;71.30
9271;DHT22;4673;53.458;9.940;2022-09-13T00:13:28;16.70;71.30
9271;DHT22;4673;53.458;9.940;2022-09-13T00:15:54;16.70;70.80
9271;DHT22;4673;53.458;9.940;2022-09-13T00:18:19;16.70;70.80
9271;DHT22;4673;53.458;9.940;2022-09-13T00:20:45;16.70;70.70
9271;DHT22;4673;53.458;9.940;2022-09-13T00:23:11;16.80;70.50
9271;DHT22;4673;53.458;9.940;2022-09-13T00:25:37;16.80;70.50
9271;DHT22;4673;53.458;9.940;2022-09-13T00:28:03;16.80;70.20
9271;DHT22;4673;53.458;9.940;2022-09-13T00:30:30;16.80;70.40
9271;DHT22;4673;53.458;9.940;2022-09-13T00:32:56;16.80;70.50
9271;DHT22;4673;53.458;9.940;2022-09-13T00:35:21;16.80;70.10
9271;DHT22;4673;53.458;9.940;2022-09-13T00:37:48;16.90;70.20
9271;DHT22;4673;53.458;9.940;2022-09-13T00:40:14;16.90;70.50
9271;DHT22;4673;53.458;9.940;2022-09-13T00:42:39;16.80;71.00
9271;DHT22;4673;53.458;9.940;2022-09-13T00:45:15;16.80;71.70
9271;DHT22;4673;53.458;9.940;2022-09-13T00:47:44;16.60;73.30
9271;DHT22;4673;53.458;9.940;2022-09-13T00:53:04;16.50;75.70
9271;DHT22;4673;53.458;9.940;2022-09-13T00:58:05;16.30;78.50
9271;DHT22;4673;53.458;9.940;2022-09-13T01:00:32;16.20;79.30
9271;DHT22;4673;53.458;9.940;2022-09-13T01:03:01;16.10;80.60
9271;DHT22;4673;53.458;9.940;2022-09-13T01:05:39;16.00;81.30
9271;DHT22;4673;53.458;9.940;2022-09-13T01:08:07;15.90;81.80
9271;DHT22;4673;53.458;9.940;2022-09-13T01:10:43;15.90;82.60
9271;DHT22;4673;53.458;9.940;2022-09-13T01:13:13;15.90;83.50
9271;DHT22;4673;53.458;9.940;2022-09-13T01:15:40;15.80;84.60
9271;DHT22;4673;53.458;9.940;2022-09-13T01:18:07;15.80;85.40
9271;DHT22;4673;53.458;9.940;2022-09-13T01:27:22;15.60;87.20
9271;DHT22;4673;53.458;9.940;2022-09-13T01:35:50;15.60;88.90
9271;DHT22;4673;53.458;9.940;2022-09-13T01:52:41;15.60;91.20
9271;DHT22;4673;53.458;9.940;2022-09-13T01:58:33;15.60;91.70
9271;DHT22;4673;53.458;9.940;2022-09-13T02:02:03;15.60;91.90
9271;DHT22;4673;53.458;9.940;2022-09-13T02:04:01;15.50;91.90
9271;DHT22;4673;53.458;9.940;2022-09-13T02:09:43;15.50;92.10
9271;DHT22;4673;53.458;9.940;2022-09-13T02:12:15;15.50;92.40
9271;DHT22;4673;53.458;9.940;2022-09-13T02:14:43;15.50;92.60
9271;DHT22;4673;53.458;9.940;2022-09-13T02:17:13;15.50;92.80
9271;DHT22;4673;53.458;9.940;2022-09-13T02:19:58;15.50;92.80
9271;DHT22;4673;53.458;9.940;2022-09-13T02:22:38;15.50;92.80
9271;DHT22;4673;53.458;9.940;2022-09-13T02:25:12;15.50;92.90
9271;DHT22;4673;53.458;9.940;2022-09-13T02:27:40;15.50;93.10
9271;DHT22;4673;53.458;9.940;2022-09-13T02:30:09;15.50;93.00
9271;DHT22;4673;53.458;9.940;2022-09-13T02:32:47;15.40;92.90
9271;DHT22;4673;53.458;9.940;2022-09-13T02:35:26;15.40;93.00
9271;DHT22;4673;53.458;9.940;2022-09-13T02:38:10;15.40;93.10
9271;DHT22;4673;53.458;9.940;2022-09-13T02:40:41;15.40;93.10
9271;DHT22;4673;53.458;9.940;2022-09-13T02:43:13;15.40;93.10
9271;DHT22;4673;53.458;9.940;2022-09-13T02:45:46;15.30;93.10
9271;DHT22;4673;53.458;9.940;2022-09-13T02:48:32;15.30;93.20
9271;DHT22;4673;53.458;9.940;2022-09-13T02:51:27;15.30;93.30
9271;DHT22;4673;53.458;9.940;2022-09-13T02:57:09;15.30;93.60
9271;DHT22;4673;53.458;9.940;2022-09-13T02:59:37;15.20;93.40
9271;DHT22;4673;53.458;9.940;2022-09-13T03:02:04;15.20;93.60
9271;DHT22;4673;53.458;9.940;2022-09-13T03:04:32;15.20;93.50
9271;DHT22;4673;53.458;9.940;2022-09-13T03:06:57;15.20;93.60
9271;DHT22;4673;53.458;9.940;2022-09-13T03:09:23;15.20;93.70
9271;DHT22;4673;53.458;9.940;2022-09-13T03:12:18;15.20;93.90
9271;DHT22;4673;53.458;9.940;2022-09-13T03:23:16;15.30;94.40
9271;DHT22;4673;53.458;9.940;2022-09-13T03:25:58;15.20;94.30
9271;DHT22;4673;53.458;9.940;2022-09-13T03:29:00;15.50;94.80
9271;DHT22;4673;53.458;9.940;2022-09-13T03:34:50;15.50;94.70
9271;DHT22;4673;53.458;9.940;2022-09-13T03:40:54;15.60;94.50
9271;DHT22;4673;53.458;9.940;2022-09-13T03:43:26;15.70;94.50
9271;DHT22;4673;53.458;9.940;2022-09-13T03:46:03;15.70;94.50
9271;DHT22;4673;53.458;9.940;2022-09-13T03:48:33;15.60;94.30
9271;DHT22;4673;53.458;9.940;2022-09-13T03:51:01;15.60;94.40
9271;DHT22;4673;53.458;9.940;2022-09-13T03:53:28;15.80;94.70
9271;DHT22;4673;53.458;9.940;2022-09-13T03:55:55;15.70;94.70
9271;DHT22;4673;53.458;9.940;2022-09-13T03:58:21;15.70;94.80
9271;DHT22;4673;53.458;9.940;2022-09-13T04:00:47;15.50;94.70
9271;DHT22;4673;53.458;9.940;2022-09-13T04:03:13;15.60;94.80
9271;DHT22;4673;53.458;9.940;2022-09-13T04:05:39;15.70;94.90
9271;DHT22;4673;53.458;9.940;2022-09-13T04:08:06;15.60;94.80
9271;DHT22;4673;53.458;9.940;2022-09-13T04:10:32;15.60;95.00
9271;DHT22;4673;53.458;9.940;2022-09-13T04:12:58;15.70;95.10
9271;DHT22;4673;53.458;9.940;2022-09-13T04:15:28;15.70;95.20
9271;DHT22;4673;53.458;9.940;2022-09-13T04:17:55;15.60;95.00
9271;DHT22;4673;53.458;9.940;2022-09-13T04:20:21;15.70;95.10
9271;DHT22;4673;53.458;9.940;2022-09-13T04:23:07;15.60;95.10
9271;DHT22;4673;53.458;9.940;2022-09-13T04:25:36;15.80;95.10
9271;DHT22;4673;53.458;9.940;2022-09-13T04:28:05;15.60;95.10
9271;DHT22;4673;53.458;9.940;2022-09-13T04:30:31;15.70;95.00
9271;DHT22;4673;53.458;9.940;2022-09-13T04:32:59;15.60;94.80
9271;DHT22;4673;53.458;9.940;2022-09-13T04:35:43;15.60;94.70
9271;DHT22;4673;53.458;9.940;2022-09-13T04:38:11;15.70;94.90
9271;DHT22;4673;53.458;9.940;2022-09-13T04:40:41;15.50;94.90
9271;DHT22;4673;53.458;9.940;2022-09-13T04:43:07;15.60;95.10
9271;DHT22;4673;53.458;9.940;2022-09-13T04:48:33;15.70;95.50
9271;DHT22;4673;53.458;9.940;2022-09-13T04:51:03;15.60;95.70
9271;DHT22;4673;53.458;9.940;2022-09-13T04:53:35;15.60;95.80
9271;DHT22;4673;53.458;9.940;2022-09-13T04:56:04;15.60;95.80
9271;DHT22;4673;53.458;9.940;2022-09-13T04:58:31;15.60;95.90
9271;DHT22;4673;53.458;9.940;2022-09-13T05:01:04;15.50;96.00
9271;DHT22;4673;53.458;9.940;2022-09-13T05:03:31;15.60;96.30
9271;DHT22;4673;53.458;9.940;2022-09-13T05:06:21;15.50;96.50
9271;DHT22;4673;53.458;9.940;2022-09-13T05:08:54;15.50;96.60
9271;DHT22;4673;53.458;9.940;2022-09-13T05:11:29;15.50;96.80
9271;DHT22;4673;53.458;9.940;2022-09-13T05:13:57;15.50;97.00
9271;DHT22;4673;53.458;9.940;2022-09-13T05:16:25;15.50;97.20
9271;DHT22;4673;53.458;9.940;2022-09-13T05:18:52;15.50;97.40
9271;DHT22;4673;53.458;9.940;2022-09-13T05:21:21;15.60;97.50
9271;DHT22;4673;53.458;9.940;2022-09-13T05:23:50;15.60;97.50
9271;DHT22;4673;53.458;9.940;2022-09-13T05:26:17;15.50;97.70
9271;DHT22;4673;53.458;9.940;2022-09-13T05:28:43;15.70;97.90
9271;DHT22;4673;53.458;9.940;2022-09-13T05:31:16;15.50;97.80
9271;DHT22;4673;53.458;9.940;2022-09-13T05:33:42;15.60;97.90
9271;DHT22;4673;53.458;9.940;2022-09-13T05:36:08;15.80;98.40
9271;DHT22;4673;53.458;9.940;2022-09-13T05:38:33;15.70;98.60
9271;DHT22;4673;53.458;9.940;2022-09-13T05:41:01;15.70;98.60
9271;DHT22;4673;53.458;9.940;2022-09-13T05:43:29;15.70;98.70
9271;DHT22;4673;53.458;9.940;2022-09-13T05:46:09;15.70;98.70
9271;DHT22;4673;53.458;9.940;2022-09-13T05:48:35;15.80;98.70
9271;DHT22;4673;53.458;9.940;2022-09-13T05:51:16;15.80;98.80
9271;DHT22;4673;53.458;9.940;2022-09-13T05:53:49;15.80;99.10
9271;DHT22;4673;53.458;9.940;2022-09-13T05:56:19;15.80;98.90
9271;DHT22;4673;53.458;9.940;2022-09-13T05:59:03;15.80;99.10
9271;DHT22;4673;53.458;9.940;2022-09-13T06:01:31;15.90;99.20
9271;DHT22;4673;53.458;9.940;2022-09-13T06:03:59;15.90;99.30
9271;DHT22;4673;53.458;9.940;2022-09-13T06:06:27;16.10;99.40
9271;DHT22;4673;53.458;9.940;2022-09-13T06:08:59;16.10;99.10
9271;DHT22;4673;53.458;9.940;2022-09-13T06:11:33;16.20;98.90
9271;DHT22;4673;53.458;9.940;2022-09-13T06:13:59;16.30;98.90
9271;DHT22;4673;53.458;9.940;2022-09-13T06:16:32;16.30;98.70
9271;DHT22;4673;53.458;9.940;2022-09-13T06:18:57;16.30;98.30
9271;DHT22;4673;53.458;9.940;2022-09-13T06:21:23;16.30;98.00
9271;DHT22;4673;53.458;9.940;2022-09-13T06:23:51;16.40;98.20
9271;DHT22;4673;53.458;9.940;2022-09-13T06:26:22;16.30;98.20
9271;DHT22;4673;53.458;9.940;2022-09-13T06:28:52;16.50;98.20
9271;DHT22;4673;53.458;9.940;2022-09-13T06:31:22;16.60;98.20
9271;DHT22;4673;53.458;9.940;2022-09-13T06:33:53;16.70;98.10
9271;DHT22;4673;53.458;9.940;2022-09-13T06:36:26;16.50;97.50
9271;DHT22;4673;53.458;9.940;2022-09-13T06:38:52;16.60;97.40
9271;DHT22;4673;53.458;9.940;2022-09-13T06:41:30;16.80;97.80
9271;DHT22;4673;53.458;9.940;2022-09-13T06:44:12;16.90;98.00
9271;DHT22;4673;53.458;9.940;2022-09-13T06:46:58;17.10;97.70
9271;DHT22;4673;53.458;9.940;2022-09-13T06:49:28;17.10;97.50
9271;DHT22;4673;53.458;9.940;2022-09-13T06:52:03;17.30;97.10
9271;DHT22;4673;53.458;9.940;2022-09-13T06:54:32;17.50;96.80
9271;DHT22;4673;53.458;9.940;2022-09-13T06:57:00;17.50;96.20
9271;DHT22;4673;53.458;9.940;2022-09-13T06:59:27;17.70;95.20
9271;DHT22;4673;53.458;9.940;2022-09-13T07:01:53;17.70;94.20
9271;DHT22;4673;53.458;9.940;2022-09-13T07:04:19;17.70;93.80
9271;DHT22;4673;53.458;9.940;2022-09-13T07:06:48;17.90;93.00
9271;DHT22;4673;53.458;9.940;2022-09-13T07:09:21;17.80;92.40
9271;DHT22;4673;53.458;9.940;2022-09-13T07:11:49;17.90;92.30
9271;DHT22;4673;53.458;9.940;2022-09-13T07:14:17;18.10;91.70
9271;DHT22;4673;53.458;9.940;2022-09-13T07:16:43;18.10;91.20
9271;DHT22;4673;53.458;9.940;2022-09-13T07:19:16;18.00;90.30
9271;DHT22;4673;53.458;9.940;2022-09-13T07:21:42;18.00;90.70
9271;DHT22;4673;53.458;9.940;2022-09-13T07:24:09;18.00;90.90
9271;DHT22;4673;53.458;9.940;2022-09-13T07:26:35;18.10;91.00
9271;DHT22;4673;53.458;9.940;2022-09-13T07:29:06;18.50;90.90
9271;DHT22;4673;53.458;9.940;2022-09-13T07:31:35;18.40;89.40
9271;DHT22;4673;53.458;9.940;2022-09-13T07:34:06;18.50;89.80
9271;DHT22;4673;53.458;9.940;2022-09-13T07:36:34;18.70;89.70
9271;DHT22;4673;53.458;9.940;2022-09-13T07:39:00;18.80;89.20
9271;DHT22;4673;53.458;9.940;2022-09-13T07:41:29;18.70;88.30
9271;DHT22;4673;53.458;9.940;2022-09-13T07:44:02;18.80;88.70
9271;DHT22;4673;53.458;9.940;2022-09-13T07:46:36;19.00;88.40
9271;DHT22;4673;53.458;9.940;2022-09-13T07:49:08;19.30;87.50
9271;DHT22;4673;53.458;9.940;2022-09-13T07:51:36;19.30;86.90
9271;DHT22;4673;53.458;9.940;2022-09-13T07:54:05;19.50;86.40
9271;DHT22;4673;53.458;9.940;2022-09-13T07:56:34;19.50;85.70
9271;DHT22;4673;53.458;9.940;2022-09-13T07:59:02;19.40;85.10
9271;DHT22;4673;53.458;9.940;2022-09-13T08:01:36;19.20;85.10
9271;DHT22;4673;53.458;9.940;2022-09-13T08:04:10;19.40;85.10
9271;DHT22;4673;53.458;9.940;2022-09-13T08:06:38;19.40;84.90
9271;DHT22;4673;53.458;9.940;2022-09-13T08:09:05;19.40;84.90
9271;DHT22;4673;53.458;9.940;2022-09-13T08:11:37;19.20;84.70
9271;DHT22;4673;53.458;9.940;2022-09-13T08:14:17;18.80;85.50
9271;DHT22;4673;53.458;9.940;2022-09-13T08:16:43;18.50;86.60
9271;DHT22;4673;53.458;9.940;2022-09-13T08:19:14;18.50;87.10
9271;DHT22;4673;53.458;9.940;2022-09-13T08:21:54;18.40;87.60
9271;DHT22;4673;53.458;9.940;2022-09-13T08:24:42;18.30;87.70
9271;DHT22;4673;53.458;9.940;2022-09-13T08:27:32;18.50;88.50
9271;DHT22;4673;53.458;9.940;2022-09-13T08:30:03;18.70;88.40
9271;DHT22;4673;53.458;9.940;2022-09-13T08:32:34;18.80;88.10
9271;DHT22;4673;53.458;9.940;2022-09-13T08:35:15;18.70;87.00
9271;DHT22;4673;53.458;9.940;2022-09-13T08:38:04;19.10;87.70
9271;DHT22;4673;53.458;9.940;2022-09-13T08:41:04;19.30;86.60
9271;DHT22;4673;53.458;9.940;2022-09-13T08:44:33;19.30;85.30
9271;DHT22;4673;53.458;9.940;2022-09-13T08:47:27;19.20;83.70
9271;DHT22;4673;53.458;9.940;2022-09-13T08:50:33;19.70;85.10
9271;DHT22;4673;53.458;9.940;2022-09-13T08:53:30;19.90;82.30
9271;DHT22;4673;53.458;9.940;2022-09-13T08:56:07;20.10;81.70
9271;DHT22;4673;53.458;9.940;2022-09-13T09:07:14;19.80;79.40
9271;DHT22;4673;53.458;9.940;2022-09-13T09:12:40;19.80;78.00
9271;DHT22;4673;53.458;9.940;2022-09-13T09:15:23;19.90;76.60
9271;DHT22;4673;53.458;9.940;2022-09-13T09:18:15;19.70;76.10
9271;DHT22;4673;53.458;9.940;2022-09-13T09:20:52;19.90;76.60
9271;DHT22;4673;53.458;9.940;2022-09-13T09:26:15;20.30;75.50
9271;DHT22;4673;53.458;9.940;2022-09-13T09:28:42;20.30;74.60
9271;DHT22;4673;53.458;9.940;2022-09-13T09:34:07;20.20;75.20
9271;DHT22;4673;53.458;9.940;2022-09-13T09:39:04;20.30;73.70
9271;DHT22;4673;53.458;9.940;2022-09-13T09:41:34;20.30;73.10
9271;DHT22;4673;53.458;9.940;2022-09-13T09:44:21;20.30;73.20
9271;DHT22;4673;53.458;9.940;2022-09-13T09:46:50;20.30;72.70
9271;DHT22;4673;53.458;9.940;2022-09-13T09:49:39;20.30;72.20
9271;DHT22;4673;53.458;9.940;2022-09-13T09:58:05;20.60;72.30
9271;DHT22;4673;53.458;9.940;2022-09-13T10:00:34;20.90;70.40
9271;DHT22;4673;53.458;9.940;2022-09-13T10:03:22;20.90;70.30
9271;DHT22;4673;53.458;9.940;2022-09-13T10:05:48;20.70;68.00
9271;DHT22;4673;53.458;9.940;2022-09-13T10:08:25;20.60;68.10
9271;DHT22;4673;53.458;9.940;2022-09-13T10:10:54;20.10;65.90
9271;DHT22;4673;53.458;9.940;2022-09-13T10:13:23;19.40;67.40
9271;DHT22;4673;53.458;9.940;2022-09-13T10:15:57;19.00;68.20
9271;DHT22;4673;53.458;9.940;2022-09-13T10:18:25;18.80;69.40
9271;DHT22;4673;53.458;9.940;2022-09-13T10:21:09;18.80;69.50
9271;DHT22;4673;53.458;9.940;2022-09-13T10:23:45;18.80;69.50
9271;DHT22;4673;53.458;9.940;2022-09-13T10:26:17;19.00;69.60
9271;DHT22;4673;53.458;9.940;2022-09-13T10:29:00;19.10;69.80
9271;DHT22;4673;53.458;9.940;2022-09-13T10:31:33;19.30;68.50
9271;DHT22;4673;53.458;9.940;2022-09-13T10:34:04;19.50;67.20
9271;DHT22;4673;53.458;9.940;2022-09-13T10:36:33;19.70;67.70
9271;DHT22;4673;53.458;9.940;2022-09-13T10:39:04;19.90;65.10
9271;DHT22;4673;53.458;9.940;2022-09-13T10:41:36;20.20;64.60
9271;DHT22;4673;53.458;9.940;2022-09-13T10:44:06;20.50;64.00
9271;DHT22;4673;53.458;9.940;2022-09-13T10:46:47;20.80;61.60
9271;DHT22;4673;53.458;9.940;2022-09-13T10:49:46;20.60;56.30
9271;DHT22;4673;53.458;9.940;2022-09-13T11:09:51;20.00;57.50
9271;DHT22;4673;53.458;9.940;2022-09-13T11:15:44;20.20;55.60
9271;DHT22;4673;53.458;9.940;2022-09-13T11:19:03;20.10;53.30
9271;DHT22;4673;53.458;9.940;2022-09-13T11:29:32;19.60;54.60
9271;DHT22;4673;53.458;9.940;2022-09-13T11:41:33;18.90;54.00
9271;DHT22;4673;53.458;9.940;2022-09-13T11:44:37;18.80;55.30
9271;DHT22;4673;53.458;9.940;2022-09-13T11:53:28;19.20;53.70
9271;DHT22;4673;53.458;9.940;2022-09-13T12:05:08;19.40;51.70
9271;DHT22;4673;53.458;9.940;2022-09-13T12:07:45;19.30;52.90
9271;DHT22;4673;53.458;9.940;2022-09-13T12:10:27;19.40;52.80
9271;DHT22;4673;53.458;9.940;2022-09-13T12:12:54;19.40;51.50
9271;DHT22;4673;53.458;9.940;2022-09-13T12:15:41;19.40;50.80
9271;DHT22;4673;53.458;9.940;2022-09-13T12:18:47;19.40;51.20
9271;DHT22;4673;53.458;9.940;2022-09-13T12:21:10;19.40;50.70
9271;DHT22;4673;53.458;9.940;2022-09-13T12:23:38;19.80;51.50
9271;DHT22;4673;53.458;9.940;2022-09-13T12:26:25;20.20;50.30
9271;DHT22;4673;53.458;9.940;2022-09-13T12:28:58;20.60;48.60
9271;DHT22;4673;53.458;9.940;2022-09-13T12:31:28;20.90;47.20
9271;DHT22;4673;53.458;9.940;2022-09-13T12:33:54;20.90;47.30
9271;DHT22;4673;53.458;9.940;2022-09-13T12:58:29;22.00;44.60
9271;DHT22;4673;53.458;9.940;2022-09-13T13:03:31;22.00;43.60
9271;DHT22;4673;53.458;9.940;2022-09-13T13:06:36;22.00;44.10
9271;DHT22;4673;53.458;9.940;2022-09-13T13:09:19;22.10;45.00
9271;DHT22;4673;53.458;9.940;2022-09-13T13:11:48;22.00;44.40
9271;DHT22;4673;53.458;9.940;2022-09-13T13:20:47;21.90;43.30
9271;DHT22;4673;53.458;9.940;2022-09-13T13:22:50;21.80;43.90
9271;DHT22;4673;53.458;9.940;2022-09-13T13:25:32;21.60;44.00
9271;DHT22;4673;53.458;9.940;2022-09-13T13:27:58;21.50;44.40
9271;DHT22;4673;53.458;9.940;2022-09-13T13:30:49;21.20;45.00
9271;DHT22;4673;53.458;9.940;2022-09-13T13:33:26;21.10;46.00
9271;DHT22;4673;53.458;9.940;2022-09-13T13:35:52;21.10;46.70
9271;DHT22;4673;53.458;9.940;2022-09-13T13:38:44;21.10;48.10
9271;DHT22;4673;53.458;9.940;2022-09-13T13:41:40;21.10;48.00
9271;DHT22;4673;53.458;9.940;2022-09-13T13:46:47;21.00;45.00
9271;DHT22;4673;53.458;9.940;2022-09-13T13:52:39;21.00;45.90
9271;DHT22;4673;53.458;9.940;2022-09-13T13:58:24;21.00;46.90
9271;DHT22;4673;53.458;9.940;2022-09-13T14:00:52;20.90;47.10
9271;DHT22;4673;53.458;9.940;2022-09-13T14:19:44;20.70;50.10
9271;DHT22;4673;53.458;9.940;2022-09-13T14:22:24;20.70;49.80
9271;DHT22;4673;53.458;9.940;2022-09-13T14:24:56;20.60;50.30
9271;DHT22;4673;53.458;9.940;2022-09-13T14:27:26;20.40;52.60
9271;DHT22;4673;53.458;9.940;2022-09-13T14:30:04;20.30;54.10
9271;DHT22;4673;53.458;9.940;2022-09-13T14:32:46;20.20;55.20
9271;DHT22;4673;53.458;9.940;2022-09-13T14:38:08;19.80;57.00
9271;DHT22;4673;53.458;9.940;2022-09-13T14:40:34;19.80;57.60
9271;DHT22;4673;53.458;9.940;2022-09-13T14:43:13;19.70;58.70
9271;DHT22;4673;53.458;9.940;2022-09-13T14:45:41;19.80;59.00
9271;DHT22;4673;53.458;9.940;2022-09-13T14:50:41;19.40;59.00
9271;DHT22;4673;53.458;9.940;2022-09-13T14:53:20;19.10;60.60
9271;DHT22;4673;53.458;9.940;2022-09-13T14:56:02;19.20;61.10
9271;DHT22;4673;53.458;9.940;2022-09-13T14:58:49;19.20;61.10
9271;DHT22;4673;53.458;9.940;2022-09-13T15:01:18;19.20;61.40
9271;DHT22;4673;53.458;9.940;2022-09-13T15:03:47;19.10;62.10
9271;DHT22;4673;53.458;9.940;2022-09-13T15:06:25;19.00;62.00
9271;DHT22;4673;53.458;9.940;2022-09-13T15:08:52;19.20;61.00
9271;DHT22;4673;53.458;9.940;2022-09-13T15:11:32;19.20;60.10
9271;DHT22;4673;53.458;9.940;2022-09-13T15:17:05;19.10;60.40
9271;DHT22;4673;53.458;9.940;2022-09-13T15:19:39;18.90;61.00
9271;DHT22;4673;53.458;9.940;2022-09-13T15:22:23;18.90;61.70
9271;DHT22;4673;53.458;9.940;2022-09-13T15:24:57;18.80;61.30
9271;DHT22;4673;53.458;9.940;2022-09-13T15:27:46;18.80;60.90
9271;DHT22;4673;53.458;9.940;2022-09-13T15:30:21;18.70;60.90
9271;DHT22;4673;53.458;9.940;2022-09-13T15:32:47;18.80;60.40
9271;DHT22;4673;53.458;9.940;2022-09-13T15:35:33;18.70;59.30
9271;DHT22;4673;53.458;9.940;2022-09-13T15:38:06;18.70;59.90
9271;DHT22;4673;53.458;9.940;2022-09-13T15:40:47;18.60;60.30
9271;DHT22;4673;53.458;9.940;2022-09-13T15:43:22;18.60;60.70
9271;DHT22;4673;53.458;9.940;2022-09-13T15:45:47;18.40;60.30
9271;DHT22;4673;53.458;9.940;2022-09-13T15:48:27;18.40;60.10
9271;DHT22;4673;53.458;9.940;2022-09-13T15:51:06;18.30;59.70
9271;DHT22;4673;53.458;9.940;2022-09-13T15:53:34;18.30;60.30
9271;DHT22;4673;53.458;9.940;2022-09-13T15:56:00;18.30;60.40
9271;DHT22;4673;53.458;9.940;2022-09-13T15:58:26;18.30;60.10
9271;DHT22;4673;53.458;9.940;2022-09-13T16:00:52;18.30;60.30
9271;DHT22;4673;53.458;9.940;2022-09-13T16:03:17;18.10;60.40
9271;DHT22;4673;53.458;9.940;2022-09-13T16:05:43;18.10;60.40
9271;DHT22;4673;53.458;9.940;2022-09-13T16:08:10;18.10;61.20
9271;DHT22;4673;53.458;9.940;2022-09-13T16:10:36;18.10;61.60
9271;DHT22;4673;53.458;9.940;2022-09-13T16:13:02;18.00;62.00
9271;DHT22;4673;53.458;9.940;2022-09-13T16:15:28;18.10;62.50
9271;DHT22;4673;53.458;9.940;2022-09-13T16:17:53;18.10;62.70
9271;DHT22;4673;53.458;9.940;2022-09-13T16:20:19;18.10;62.40
9271;DHT22;4673;53.458;9.940;2022-09-13T16:22:45;18.10;62.70
9271;DHT22;4673;53.458;9.940;2022-09-13T16:25:12;18.00;61.90
9271;DHT22;4673;53.458;9.940;2022-09-13T16:27:38;17.90;62.50
9271;DHT22;4673;53.458;9.940;2022-09-13T16:30:05;17.70;62.90
9271;DHT22;4673;53.458;9.940;2022-09-13T16:32:31;17.70;63.30
9271;DHT22;4673;53.458;9.940;2022-09-13T16:34:57;17.60;63.70
9271;DHT22;4673;53.458;9.940;2022-09-13T16:37:23;17.50;64.10
9271;DHT22;4673;53.458;9.940;2022-09-13T16:39:48;17.60;64.40
9271;DHT22;4673;53.458;9.940;2022-09-13T16:42:15;17.60;64.70
9271;DHT22;4673;53.458;9.940;2022-09-13T16:44:42;17.50;64.60
9271;DHT22;4673;53.458;9.940;2022-09-13T16:47:08;17.50;64.90
9271;DHT22;4673;53.458;9.940;2022-09-13T16:49:34;17.50;65.20
9271;DHT22;4673;53.458;9.940;2022-09-13T16:52:00;17.40;64.70
9271;DHT22;4673;53.458;9.940;2022-09-13T16:54:27;17.30;65.10
9271;DHT22;4673;53.458;9.940;2022-09-13T16:56:54;17.30;65.30
9271;DHT22;4673;53.458;9.940;2022-09-13T16:59:20;17.20;65.40
9271;DHT22;4673;53.458;9.940;2022-09-13T17:01:46;17.20;65.80
9271;DHT22;4673;53.458;9.940;2022-09-13T17:04:11;17.10;65.80
9271;DHT22;4673;53.458;9.940;2022-09-13T17:06:37;17.10;65.40
9271;DHT22;4673;53.458;9.940;2022-09-13T17:09:04;17.00;65.70
9271;DHT22;4673;53.458;9.940;2022-09-13T17:11:36;17.00;65.60
9271;DHT22;4673;53.458;9.940;2022-09-13T17:14:04;16.90;65.10
9271;DHT22;4673;53.458;9.940;2022-09-13T17:16:33;16.90;65.50
9271;DHT22;4673;53.458;9.940;2022-09-13T17:19:01;16.80;65.40
9271;DHT22;4673;53.458;9.940;2022-09-13T17:21:28;16.70;65.20
9271;DHT22;4673;53.458;9.940;2022-09-13T17:23:54;16.60;65.20
9271;DHT22;4673;53.458;9.940;2022-09-13T17:26:20;16.60;65.80
9271;DHT22;4673;53.458;9.940;2022-09-13T17:28:46;16.50;65.80
9271;DHT22;4673;53.458;9.940;2022-09-13T17:31:12;16.40;66.40
9271;DHT22;4673;53.458;9.940;2022-09-13T17:33:37;16.30;66.80
9271;DHT22;4673;53.458;9.940;2022-09-13T17:36:05;16.20;67.20
9271;DHT22;4673;53.458;9.940;2022-09-13T17:38:33;16.20;67.70
9271;DHT22;4673;53.458;9.940;2022-09-13T17:43:26;15.90;69.20
9271;DHT22;4673;53.458;9.940;2022-09-13T17:45:52;15.80;69.50
9271;DHT22;4673;53.458;9.940;2022-09-13T17:48:17;15.70;70.40
9271;DHT22;4673;53.458;9.940;2022-09-13T17:50:43;15.70;71.00
9271;DHT22;4673;53.458;9.940;2022-09-13T17:53:09;15.60;71.60
9271;DHT22;4673;53.458;9.940;2022-09-13T17:55:36;15.50;72.00
9271;DHT22;4673;53.458;9.940;2022-09-13T17:58:02;15.40;72.00
9271;DHT22;4673;53.458;9.940;2022-09-13T18:00:27;15.30;72.60
9271;DHT22;4673;53.458;9.940;2022-09-13T18:02:53;15.30;73.00
9271;DHT22;4673;53.458;9.940;2022-09-13T18:05:18;15.20;73.40
9271;DHT22;4673;53.458;9.940;2022-09-13T18:07:45;15.20;73.70
9271;DHT22;4673;53.458;9.940;2022-09-13T18:10:10;15.20;73.90
9271;DHT22;4673;53.458;9.940;2022-09-13T18:12:36;15.10;74.10
9271;DHT22;4673;53.458;9.940;2022-09-13T18:15:02;15.00;74.10
9271;DHT22;4673;53.458;9.940;2022-09-13T18:17:28;15.00;74.40
9271;DHT22;4673;53.458;9.940;2022-09-13T18:19:54;14.90;74.70
9271;DHT22;4673;53.458;9.940;2022-09-13T18:22:19;14.90;74.90
9271;DHT22;4673;53.458;9.940;2022-09-13T18:24:45;14.90;75.00
9271;DHT22;4673;53.458;9.940;2022-09-13T18:27:11;14.90;75.10
9271;DHT22;4673;53.458;9.940;2022-09-13T18:29:36;14.80;75.20
9271;DHT22;4673;53.458;9.940;2022-09-13T18:32:02;14.90;75.40
9271;DHT22;4673;53.458;9.940;2022-09-13T18:34:27;14.90;75.50
9271;DHT22;4673;53.458;9.940;2022-09-13T18:36:53;15.00;75.50
9271;DHT22;4673;53.458;9.940;2022-09-13T18:39:21;15.10;75.60
9271;DHT22;4673;53.458;9.940;2022-09-13T18:41:47;15.10;75.20
9271;DHT22;4673;53.458;9.940;2022-09-13T18:44:14;15.20;74.80
9271;DHT22;4673;53.458;9.940;2022-09-13T18:46:41;15.30;74.50
9271;DHT22;4673;53.458;9.940;2022-09-13T18:49:07;15.40;73.90
9271;DHT22;4673;53.458;9.940;2022-09-13T18:51:38;15.40;73.90
9271;DHT22;4673;53.458;9.940;2022-09-13T18:54:06;15.50;73.10
9271;DHT22;4673;53.458;9.940;2022-09-13T18:56:32;15.60;72.50
9271;DHT22;4673;53.458;9.940;2022-09-13T18:58:59;15.60;72.40
9271;DHT22;4673;53.458;9.940;2022-09-13T19:01:28;15.60;72.50
9271;DHT22;4673;53.458;9.940;2022-09-13T19:03:54;15.60;72.40
9271;DHT22;4673;53.458;9.940;2022-09-13T19:06:21;15.60;72.30
9271;DHT22;4673;53.458;9.940;2022-09-13T19:08:48;15.60;72.40
9271;DHT22;4673;53.458;9.940;2022-09-13T19:11:16;15.50;72.50
9271;DHT22;4673;53.458;9.940;2022-09-13T19:13:42;15.40;72.40
9271;DHT22;4673;53.458;9.940;2022-09-13T19:16:10;15.30;73.10
9271;DHT22;4673;53.458;9.940;2022-09-13T19:18:38;15.30;73.00
9271;DHT22;4673;53.458;9.940;2022-09-13T19:21:12;15.10;73.60
9271;DHT22;4673;53.458;9.940;2022-09-13T19:23:39;15.00;73.70
9271;DHT22;4673;53.458;9.940;2022-09-13T19:26:26;14.90;74.10
9271;DHT22;4673;53.458;9.940;2022-09-13T19:28:56;14.80;74.50
9271;DHT22;4673;53.458;9.940;2022-09-13T19:31:26;14.70;75.00
9271;DHT22;4673;53.458;9.940;2022-09-13T19:33:53;14.70;75.20
9271;DHT22;4673;53.458;9.940;2022-09-13T19:36:23;14.70;75.20
9271;DHT22;4673;53.458;9.940;2022-09-13T19:38:50;14.70;75.20
9271;DHT22;4673;53.458;9.940;2022-09-13T19:41:17;14.70;75.00
9271;DHT22;4673;53.458;9.940;2022-09-13T19:43:43;14.60;75.10
9271;DHT22;4673;53.458;9.940;2022-09-13T19:46:15;14.60;75.10
9271;DHT22;4673;53.458;9.940;2022-09-13T19:48:48;14.60;75.20
9271;DHT22;4673;53.458;9.940;2022-09-13T19:51:19;14.60;75.40
9271;DHT22;4673;53.458;9.940;2022-09-13T19:53:48;14.50;75.30
9271;DHT22;4673;53.458;9.940;2022-09-13T19:56:16;14.60;75.60
9271;DHT22;4673;53.458;9.940;2022-09-13T19:58:43;14.60;75.70